Time;durP1;ratioP1;P1;durP2;ratioP2;P2;SDS_P1;SDS_P2;PMS_P1;PMS_P2;Temp;Humidity;BMP_temperature;BMP_pressure;BME280_temperature;BME280_humidity;BME280_pressure;Samples;Min_cycle;Max_cycle;Signal;HPM_P1;HPM_P2
2023/10/03 00:01:15;;;;;;;17.67;12.27;;;17.60;99.90;;;;;;4998075;28;20849;-87
2023/10/03 00:04:02;;;;;;;19.33;12.70;;;17.50;1.00;;;;;;4997034;28;20464;-87
2023/10/03 00:09:26;;;;;;;20.50;12.03;;;17.60;1.00;;;;;;4999558;28;20442;-87
2023/10/03 00:12:13;;;;;;;20.40;12.97;;;17.50;1.00;;;;;;4996802;28;20977;-88
2023/10/03 00:14:44;;;;;;;14.90;10.00;;;17.40;1.00;;;;;;5005939;28;20451;-87
2023/10/03 00:20:40;;;;;;;17.13;10.80;;;17.00;99.90;;;;;;4975442;29;20448;-87
2023/10/03 00:23:32;;;;;;;12.70;9.27;;;17.30;99.90;;;;;;4983314;28;20475;-87
2023/10/03 00:26:17;;;;;;;12.80;10.20;;;;;;;;;;5006103;28;20462;-87
2023/10/03 00:29:23;;;;;;;15.30;10.77;;;17.10;1.00;;;;;;5015440;28;20521;-88
2023/10/03 00:35:37;;;;;;;14.87;9.93;;;;;;;;;;4810646;29;20992;-89
2023/10/03 00:44:52;;;;;;;;;;;;;;;;;;;;;
2023/10/03 00:47:51;;;;;;;17.43;10.90;;;17.50;1.00;;;;;;4984917;28;20873;-88
2023/10/03 00:50:53;;;;;;;16.43;10.30;;;17.10;1.00;;;;;;5002386;28;20845;-88
2023/10/03 00:53:41;;;;;;;16.33;9.20;;;;;;;;;;5002620;28;21130;-88
2023/10/03 00:56:43;;;;;;;17.63;11.40;;;16.90;1.00;;;;;;5001545;28;20833;-88
2023/10/03 01:02:31;;;;;;;17.13;10.67;;;16.70;93.50;;;;;;5003433;28;20452;-88
2023/10/03 01:05:20;;;;;;;17.93;10.07;;;16.70;99.90;;;;;;5011808;28;20435;-87
2023/10/03 01:11:04;;;;;;;13.80;9.23;;;16.60;99.90;;;;;;4979206;28;20488;-88
2023/10/03 01:14:17;;;;;;;;;;;;;;;;;;;;;
2023/10/03 01:17:20;;;;;;;11.67;9.00;;;16.70;99.90;;;;;;4987444;28;20483;-87
2023/10/03 01:20:32;;;;;;;12.97;10.40;;;17.30;99.90;;;;;;4931504;28;20452;-87
2023/10/03 01:23:44;;;;;;;15.33;9.53;;;16.70;99.90;;;;;;4998702;28;20436;-88
2023/10/03 01:26:27;;;;;;;12.80;9.63;;;16.40;1.00;;;;;;5020132;28;20495;-87
2023/10/03 01:29:30;;;;;;;12.13;9.80;;;16.50;1.00;;;;;;5020504;28;20433;-87
2023/10/03 01:38:48;;;;;;;13.23;8.13;;;16.40;1.00;;;;;;4948389;28;20452;-87
2023/10/03 01:46:11;;;;;;;;;;;;;;;;;;;;;
2023/10/03 01:56:03;;;;;;;15.93;9.73;;;15.30;1.00;;;;;;4835538;29;20470;-87
2023/10/03 01:58:43;;;;;;;14.10;10.27;;;;;;;;;;4938960;29;20456;-87
2023/10/03 02:01:34;;;;;;;11.57;8.30;;;16.10;99.90;;;;;;4925963;29;20427;-87
2023/10/03 02:04:27;;;;;;;15.47;10.07;;;16.10;99.90;;;;;;4942459;29;20460;-87
2023/10/03 02:07:11;;;;;;;14.30;9.43;;;16.10;99.90;;;;;;4926713;29;20472;-88
2023/10/03 02:09:54;;;;;;;14.30;9.63;;;15.80;1.00;;;;;;4982092;28;20461;-88
2023/10/03 02:12:32;;;;;;;12.70;9.80;;;17.90;28.50;;;;;;4999952;28;20479;-88
2023/10/03 02:15:09;;;;;;;14.10;9.87;;;;;;;;;;4999012;28;20519;-87
2023/10/03 02:17:49;;;;;;;14.13;10.70;;;16.00;99.90;;;;;;4998781;28;20456;-88
2023/10/03 02:20:30;;;;;;;13.73;9.40;;;15.90;1.00;;;;;;4998818;28;20817;-88
2023/10/03 02:23:05;;;;;;;14.43;11.37;;;;;;;;;;5016014;28;20467;-86
2023/10/03 02:28:59;;;;;;;17.00;10.83;;;15.80;1.00;;;;;;5018638;28;20445;-87
2023/10/03 02:34:22;;;;;;;15.13;10.70;;;15.90;1.00;;;;;;5004315;28;20434;-88
2023/10/03 02:36:59;;;;;;;16.60;11.10;;;15.70;99.90;;;;;;4998660;28;20468;-88
2023/10/03 02:39:51;;;;;;;17.20;11.27;;;15.70;46.90;;;;;;5016630;28;20440;-88
2023/10/03 02:42:34;;;;;;;15.40;10.60;;;15.70;1.00;;;;;;5019713;28;20440;-87
2023/10/03 02:45:22;;;;;;;11.43;9.60;;;15.80;29.70;;;;;;5019731;28;20425;-87
2023/10/03 02:47:58;;;;;;;16.93;10.20;;;15.90;99.90;;;;;;5005089;28;20973;-88
2023/10/03 02:53:26;;;;;;;15.47;10.00;;;16.00;1.00;;;;;;4998871;28;20555;-87
2023/10/03 02:56:18;;;;;;;15.60;9.83;;;16.00;1.00;;;;;;4999060;28;20809;-88
2023/10/03 02:58:48;;;;;;;18.63;9.70;;;;;;;;;;4990038;28;20449;-88
2023/10/03 03:04:12;;;;;;;15.03;11.13;;;;;;;;;;4997440;28;20832;-88
2023/10/03 03:06:51;;;;;;;14.13;9.43;;;15.90;99.90;;;;;;4999247;28;20479;-88
2023/10/03 03:09:34;;;;;;;14.73;10.10;;;15.80;1.00;;;;;;4999087;28;20481;-88
2023/10/03 03:12:37;;;;;;;;;;;;;;;;;;;;;
2023/10/03 03:15:22;;;;;;;15.97;10.40;;;;;;;;;;4999031;28;20868;-88
2023/10/03 03:18:02;;;;;;;16.03;10.30;;;15.80;99.90;;;;;;4996931;28;20452;-88
2023/10/03 03:20:50;;;;;;;16.07;10.70;;;15.70;99.90;;;;;;4997578;28;20476;-88
2023/10/03 03:23:40;;;;;;;15.00;10.90;;;15.70;1.00;;;;;;4998455;28;20817;-88
2023/10/03 03:26:17;;;;;;;21.27;10.80;;;;;;;;;;4998509;28;20476;-87
2023/10/03 03:28:46;;;;;;;14.57;9.90;;;15.80;16.00;;;;;;4997583;28;20909;-88
2023/10/03 03:31:20;;;;;;;21.23;10.60;;;15.80;1.00;;;;;;4997653;28;20945;-88
2023/10/03 03:34:03;;;;;;;14.80;10.07;;;15.80;1.00;;;;;;5007134;28;20427;-87
2023/10/03 03:36:46;;;;;;;14.90;9.17;;;15.70;81.90;;;;;;5018966;28;20445;-87
2023/10/03 03:39:20;;;;;;;17.60;9.87;;;15.70;1.00;;;;;;5009202;28;20494;-87
2023/10/03 03:41:53;;;;;;;16.03;9.87;;;;;;;;;;4998420;28;20761;-87
2023/10/03 03:47:50;;;;;;;17.43;11.00;;;15.80;1.00;;;;;;5016939;23;20499;-88
2023/10/03 03:50:32;;;;;;;17.07;10.13;;;15.80;1.00;;;;;;4998085;28;20456;-87
2023/10/03 03:53:21;;;;;;;17.27;11.90;;;;;;;;;;4999008;28;20475;-88
2023/10/03 03:58:34;;;;;;;17.00;10.63;;;;;;;;;;4998255;28;20426;-88
2023/10/03 04:01:14;;;;;;;14.80;9.80;;;;;;;;;;4999357;28;20440;-87
2023/10/03 04:03:46;;;;;;;15.67;10.70;;;15.70;1.00;;;;;;5002398;28;20432;-87
2023/10/03 04:06:25;;;;;;;19.10;11.47;;;15.70;14.10;;;;;;5010818;28;20456;-87
2023/10/03 04:08:53;;;;;;;15.73;9.80;;;;;;;;;;5006994;28;20494;-87
2023/10/03 04:11:20;;;;;;;19.10;12.10;;;;;;;;;;5000036;28;20456;-87
2023/10/03 04:13:53;;;;;;;17.03;11.20;;;;;;;;;;4999152;28;20468;-88
2023/10/03 04:16:28;;;;;;;15.17;11.20;;;15.80;1.00;;;;;;4998508;28;20476;-88
2023/10/03 04:18:57;;;;;;;17.57;10.83;;;;;;;;;;4998977;28;20443;-88
2023/10/03 04:21:40;;;;;;;24.20;12.30;;;15.50;99.90;;;;;;4999502;28;20456;-88
2023/10/03 04:24:10;;;;;;;19.07;11.40;;;15.80;99.90;;;;;;4998189;28;20440;-88
2023/10/03 04:26:40;;;;;;;17.77;11.17;;;;;;;;;;4998797;28;20468;-89
2023/10/03 04:30:10;;;;;;;20.07;11.27;;;15.90;99.90;;;;;;4999274;28;20516;-88
2023/10/03 04:32:42;;;;;;;16.27;10.17;;;15.90;99.90;;;;;;4887286;29;20491;-88
2023/10/03 04:35:13;;;;;;;15.50;10.10;;;15.70;1.00;;;;;;4919274;29;20455;-88
2023/10/03 04:37:51;;;;;;;18.27;12.10;;;15.80;99.90;;;;;;4976485;28;20460;-89
2023/10/03 04:40:29;;;;;;;15.63;10.30;;;15.80;99.90;;;;;;4998152;28;20491;-87
2023/10/03 04:43:01;;;;;;;18.90;11.10;;;;;;;;;;5000383;28;20929;-88
2023/10/03 05:37:15;;;;;;;19.97;10.80;;;16.30;99.90;;;;;;4756464;29;20468;-86
2023/10/03 05:39:41;;;;;;;18.83;10.60;;;15.80;24.70;;;;;;4975750;28;20461;-85
2023/10/03 05:42:08;;;;;;;17.40;10.60;;;15.90;1.00;;;;;;4981546;28;20445;-88
2023/10/03 05:44:37;;;;;;;19.87;11.40;;;16.00;1.00;;;;;;4981163;28;20483;-87
2023/10/03 05:47:05;;;;;;;23.00;11.07;;;16.10;1.00;;;;;;4981370;28;20473;-88
2023/10/03 05:49:32;;;;;;;17.73;10.40;;;16.10;99.90;;;;;;4980575;28;20478;-87
2023/10/03 05:51:59;;;;;;;22.77;11.20;;;16.10;1.00;;;;;;4980479;28;20481;-88
2023/10/03 05:54:30;;;;;;;22.20;11.47;;;16.10;1.00;;;;;;4981165;28;20862;-87
2023/10/03 05:56:57;;;;;;;17.33;11.70;;;16.10;1.00;;;;;;4997150;28;20607;-88
2023/10/03 05:59:26;;;;;;;19.63;11.13;;;16.20;99.90;;;;;;4983636;28;20816;-87
2023/10/03 06:01:53;;;;;;;19.70;11.23;;;16.30;99.90;;;;;;4981827;28;20453;-87
2023/10/03 06:04:20;;;;;;;18.23;12.33;;;16.30;99.90;;;;;;4986329;28;20459;-87
2023/10/03 06:06:47;;;;;;;21.67;14.67;;;16.30;99.90;;;;;;4995618;28;20497;-86
2023/10/03 06:09:14;;;;;;;21.60;11.10;;;16.30;99.90;;;;;;4980775;28;20445;-87
2023/10/03 06:11:43;;;;;;;18.57;10.87;;;16.30;99.90;;;;;;4981874;28;20456;-86
2023/10/03 06:14:10;;;;;;;19.67;12.13;;;16.40;99.90;;;;;;4982571;28;20494;-86
2023/10/03 06:16:37;;;;;;;17.27;10.33;;;16.50;99.90;;;;;;4987546;28;20499;-86
2023/10/03 06:19:04;;;;;;;18.90;10.97;;;16.50;99.90;;;;;;4986987;28;20451;-86
2023/10/03 06:21:33;;;;;;;22.07;12.37;;;16.60;99.90;;;;;;4983682;28;20783;-86
2023/10/03 06:24:00;;;;;;;20.50;10.80;;;16.70;99.90;;;;;;4989195;28;20453;-86
2023/10/03 06:26:27;;;;;;;16.67;10.67;;;16.80;99.90;;;;;;4987923;28;20490;-86
2023/10/03 06:28:55;;;;;;;17.93;9.90;;;16.60;99.90;;;;;;4990934;28;20453;-85
2023/10/03 06:31:22;;;;;;;19.00;11.30;;;16.80;99.90;;;;;;4991484;28;20455;-85
2023/10/03 06:33:49;;;;;;;18.20;10.23;;;16.80;99.90;;;;;;4999960;28;20476;-86
2023/10/03 06:36:16;;;;;;;19.73;11.60;;;16.50;99.90;;;;;;4999676;28;20481;-87
2023/10/03 06:38:43;;;;;;;20.00;11.90;;;16.70;99.90;;;;;;4999865;28;20440;-86
2023/10/03 06:41:12;;;;;;;19.10;11.47;;;16.60;99.90;;;;;;4999969;28;20419;-86
2023/10/03 06:43:39;;;;;;;17.53;11.70;;;16.80;99.90;;;;;;4999724;28;20422;-85
2023/10/03 06:46:07;;;;;;;21.10;12.57;;;16.90;99.90;;;;;;4999259;28;20486;-86
2023/10/03 06:48:35;;;;;;;23.60;17.43;;;16.80;99.90;;;;;;4990133;28;20449;-85
2023/10/03 06:51:05;;;;;;;19.10;11.13;;;16.90;99.90;;;;;;4990681;28;20525;-85
2023/10/03 06:53:32;;;;;;;22.43;11.90;;;16.90;99.90;;;;;;4986027;28;20504;-87
2023/10/03 06:56:00;;;;;;;23.67;11.20;;;16.90;99.90;;;;;;4982978;28;20500;-86
2023/10/03 06:58:28;;;;;;;19.53;12.37;;;16.90;99.90;;;;;;4981296;28;20453;-88
2023/10/03 07:00:57;;;;;;;17.97;11.47;;;16.90;99.90;;;;;;4980880;28;20958;-87
2023/10/03 07:03:26;;;;;;;16.10;10.47;;;17.00;99.90;;;;;;4980810;28;20450;-88
2023/10/03 07:05:54;;;;;;;21.57;12.40;;;17.10;99.90;;;;;;4981035;28;20470;-88
2023/10/03 07:08:23;;;;;;;21.53;11.47;;;17.00;99.90;;;;;;4979854;28;20472;-88
2023/10/03 07:10:53;;;;;;;19.03;11.50;;;17.20;99.90;;;;;;4979184;28;20443;-88
2023/10/03 07:13:21;;;;;;;23.13;11.27;;;17.30;95.20;;;;;;4980410;28;20478;-87
2023/10/03 07:15:48;;;;;;;22.40;12.47;;;17.20;86.30;;;;;;4979546;28;20485;-87
2023/10/03 07:18:17;;;;;;;22.07;12.70;;;17.50;79.80;;;;;;4983212;28;20458;-87
2023/10/03 07:20:47;;;;;;;17.77;11.07;;;17.40;70.70;;;;;;4999168;28;20442;-86
2023/10/03 07:23:15;;;;;;;20.97;11.47;;;17.50;99.90;;;;;;4999004;28;20454;-86
2023/10/03 07:25:42;;;;;;;19.07;11.23;;;17.50;99.90;;;;;;4998984;28;20499;-86
2023/10/03 07:28:10;;;;;;;22.60;12.50;;;17.50;99.90;;;;;;4997693;28;20483;-86
2023/10/03 07:30:38;;;;;;;14.57;10.20;;;17.70;99.90;;;;;;4987410;28;20470;-88
2023/10/03 07:33:06;;;;;;;18.37;10.83;;;17.70;99.90;;;;;;4984267;28;20992;-87
2023/10/03 07:35:37;;;;;;;17.90;11.50;;;18.30;1.00;;;;;;4997090;28;20447;-88
2023/10/03 07:38:10;;;;;;;23.53;12.30;;;17.90;1.00;;;;;;4985377;28;20508;-87
2023/10/03 07:40:38;;;;;;;23.53;14.33;;;18.00;99.90;;;;;;4981623;28;20551;-87
2023/10/03 07:43:12;;;;;;;21.93;11.93;;;18.10;1.00;;;;;;4978380;28;20456;-87
2023/10/03 07:45:40;;;;;;;21.33;11.30;;;18.10;1.00;;;;;;4981055;28;20807;-87
2023/10/03 07:48:11;;;;;;;20.37;13.50;;;17.60;1.00;;;;;;4990104;28;20461;-88
2023/10/03 08:07:47;;;;;;;22.73;12.30;;;19.00;99.90;;;;;;4945680;23;20887;-89
2023/10/03 10:50:04;;;;;;;21.50;12.00;;;23.00;1.00;;;;;;4951226;23;20490;-87
2023/10/03 10:52:51;;;;;;;23.13;13.40;;;23.10;1.00;;;;;;4978402;28;20478;-87
2023/10/03 10:55:20;;;;;;;19.40;10.87;;;23.10;1.00;;;;;;4982840;28;20561;-87
2023/10/03 10:57:48;;;;;;;19.70;11.23;;;23.20;1.00;;;;;;4984480;28;20461;-86
2023/10/03 11:00:22;;;;;;;14.90;10.30;;;23.20;1.00;;;;;;4979108;28;20474;-87
2023/10/03 11:02:49;;;;;;;18.20;10.73;;;23.20;1.00;;;;;;4977415;28;20451;-86
2023/10/03 11:05:17;;;;;;;15.00;10.17;;;23.10;1.00;;;;;;4977396;28;20469;-86
2023/10/03 11:07:49;;;;;;;91.93;47.47;;;22.90;1.00;;;;;;4977563;28;20479;-87
2023/10/03 11:10:17;;;;;;;16.47;12.43;;;23.10;1.00;;;;;;4980910;28;20490;-87
2023/10/03 11:12:44;;;;;;;34.43;21.43;;;23.10;1.00;;;;;;4980623;28;20450;-87
2023/10/03 11:15:15;;;;;;;61.73;41.60;;;23.10;1.00;;;;;;4979756;28;20641;-86
2023/10/03 11:17:49;;;;;;;33.00;20.13;;;23.10;1.00;;;;;;4979803;28;20458;-87
2023/10/03 11:20:18;;;;;;;37.10;22.00;;;23.20;4.00;;;;;;4979366;28;20510;-86
2023/10/03 11:22:47;;;;;;;16.60;10.30;;;23.10;1.00;;;;;;4979701;28;20447;-87
2023/10/03 11:25:14;;;;;;;14.03;9.10;;;23.10;1.00;;;;;;4982805;28;20456;-88
2023/10/03 11:27:41;;;;;;;16.03;10.40;;;23.20;1.00;;;;;;4992368;28;20428;-85
2023/10/03 11:30:15;;;;;;;23.87;14.97;;;23.30;1.00;;;;;;4996326;28;20507;-87
2023/10/03 11:32:42;;;;;;;18.87;10.57;;;23.30;1.00;;;;;;4994962;28;20464;-88
2023/10/03 11:35:17;;;;;;;14.50;9.80;;;23.30;1.00;;;;;;4989891;28;21005;-87
2023/10/03 11:37:46;;;;;;;16.53;9.40;;;23.30;1.00;;;;;;4986343;28;20451;-87
2023/10/03 11:40:15;;;;;;;18.60;9.87;;;23.20;61.30;;;;;;4990245;28;20472;-87
2023/10/03 11:42:50;;;;;;;15.03;9.90;;;23.40;1.00;;;;;;4987988;28;20451;-86
2023/10/03 11:45:19;;;;;;;16.90;10.07;;;23.10;1.00;;;;;;4987635;28;20415;-87
2023/10/03 11:48:05;;;;;;;14.53;11.00;;;23.20;1.00;;;;;;4984536;28;20452;-87
2023/10/03 11:50:37;;;;;;;15.30;9.53;;;23.20;1.00;;;;;;4988639;28;20491;-87
2023/10/03 11:53:05;;;;;;;14.80;9.83;;;23.10;1.00;;;;;;4991421;28;20429;-87
2023/10/03 11:55:33;;;;;;;22.77;10.13;;;23.10;1.00;;;;;;4981544;28;20495;-87
2023/10/03 11:58:00;;;;;;;16.10;9.33;;;;;;;;;;4982227;28;20486;-87
2023/10/03 12:00:28;;;;;;;13.40;9.17;;;23.00;1.00;;;;;;4981340;28;20584;-87
2023/10/03 12:02:55;;;;;;;18.67;11.83;;;23.00;1.00;;;;;;4981518;28;21013;-86
2023/10/03 12:05:23;;;;;;;16.93;9.17;;;23.00;1.00;;;;;;4979891;28;20530;-87
2023/10/03 12:07:51;;;;;;;13.60;8.60;;;23.00;1.00;;;;;;4996822;28;20437;-86
2023/10/03 12:10:21;;;;;;;15.67;10.33;;;23.00;1.00;;;;;;5001789;28;20456;-86
2023/10/03 12:12:48;;;;;;;19.60;9.80;;;23.00;1.00;;;;;;5001197;28;20466;-88
2023/10/03 12:15:16;;;;;;;15.80;9.30;;;23.00;1.00;;;;;;4998383;28;20505;-86
2023/10/03 12:17:46;;;;;;;13.37;8.90;;;23.00;1.00;;;;;;4990763;28;20448;-86
2023/10/03 12:20:14;;;;;;;15.87;9.37;;;23.00;1.00;;;;;;4986606;28;20471;-87
2023/10/03 12:22:41;;;;;;;15.20;8.77;;;22.90;1.00;;;;;;4986567;28;20458;-86
2023/10/03 12:25:11;;;;;;;14.03;9.90;;;22.90;1.00;;;;;;4986096;28;20451;-87
2023/10/03 12:27:38;;;;;;;15.73;9.47;;;22.90;1.00;;;;;;4989977;28;20454;-87
2023/10/03 12:30:10;;;;;;;12.27;8.93;;;22.80;1.00;;;;;;5000903;28;20485;-87
2023/10/03 12:32:38;;;;;;;15.83;9.90;;;22.70;1.00;;;;;;5002133;28;20572;-86
2023/10/03 12:35:06;;;;;;;14.47;9.27;;;22.70;1.00;;;;;;5002288;28;20502;-86
2023/10/03 12:37:34;;;;;;;13.97;8.97;;;22.90;1.00;;;;;;5002275;28;20435;-85
2023/10/03 12:40:04;;;;;;;11.70;9.30;;;23.00;1.00;;;;;;5002412;28;20460;-86
2023/10/03 12:42:32;;;;;;;16.33;9.53;;;22.80;1.00;;;;;;5001857;28;20482;-87
2023/10/03 12:45:03;;;;;;;13.57;8.77;;;22.90;1.00;;;;;;5002129;28;20465;-86
2023/10/03 12:47:30;;;;;;;12.67;8.30;;;;;;;;;;4997051;28;20461;-87
2023/10/03 12:49:59;;;;;;;15.10;7.50;;;22.90;1.00;;;;;;4987599;28;20568;-86
2023/10/03 12:52:28;;;;;;;18.13;10.10;;;22.60;1.00;;;;;;4988316;28;20514;-86
2023/10/03 12:54:55;;;;;;;13.90;8.70;;;22.80;1.00;;;;;;4989111;28;20477;-87
2023/10/03 12:57:22;;;;;;;18.13;7.77;;;22.70;1.00;;;;;;4987030;28;20461;-87
2023/10/03 12:59:52;;;;;;;14.00;9.23;;;22.10;1.00;;;;;;4986724;28;20467;-88
2023/10/03 13:02:19;;;;;;;15.40;8.73;;;22.50;1.00;;;;;;4986970;28;20505;-86
2023/10/03 13:04:47;;;;;;;17.87;9.33;;;22.40;1.00;;;;;;4985057;28;20448;-87
2023/10/03 13:07:15;;;;;;;17.43;8.97;;;22.30;1.00;;;;;;4987237;28;20455;-89
2023/10/03 13:09:43;;;;;;;13.70;7.57;;;22.30;1.00;;;;;;4987626;28;20483;-87
2023/10/03 13:12:11;;;;;;;11.87;8.40;;;22.40;1.00;;;;;;4989949;28;20441;-87
2023/10/03 13:14:38;;;;;;;13.77;8.40;;;22.20;1.00;;;;;;4986666;28;20528;-87
2023/10/03 13:17:09;;;;;;;16.83;8.50;;;22.10;1.00;;;;;;4985731;28;20456;-87
2023/10/03 13:19:37;;;;;;;18.10;12.43;;;21.70;39.60;;;;;;4993038;28;20509;-87
2023/10/03 13:22:05;;;;;;;16.03;10.10;;;;;;;;;;4987690;28;20449;-88
2023/10/03 13:24:32;;;;;;;12.30;7.70;;;22.00;1.00;;;;;;4986032;28;20457;-88
2023/10/03 13:26:59;;;;;;;14.40;8.80;;;22.00;1.00;;;;;;4994416;28;20456;-88
2023/10/03 13:29:26;;;;;;;13.90;9.60;;;22.10;1.00;;;;;;4997728;28;20536;-88
2023/10/03 13:31:53;;;;;;;14.80;8.40;;;22.20;1.00;;;;;;4991753;28;20475;-88
2023/10/03 13:34:22;;;;;;;12.33;7.87;;;22.20;1.00;;;;;;4994459;28;20473;-88
2023/10/03 13:36:48;;;;;;;23.00;8.83;;;22.00;1.00;;;;;;4991178;28;20532;-87
2023/10/03 13:39:19;;;;;;;11.90;10.20;;;22.20;1.00;;;;;;4992409;28;20508;-88
2023/10/03 13:41:47;;;;;;;12.17;8.80;;;;;;;;;;4992776;28;20417;-88
2023/10/03 13:44:15;;;;;;;11.27;7.53;;;22.30;1.00;;;;;;4996939;28;20482;-87
2023/10/03 13:46:42;;;;;;;16.13;9.33;;;22.30;1.00;;;;;;4994801;28;20446;-88
2023/10/03 13:49:10;;;;;;;12.83;8.37;;;22.50;1.00;;;;;;4995523;28;20441;-87
2023/10/03 13:51:38;;;;;;;10.07;7.67;;;22.40;1.00;;;;;;4999521;28;20415;-87
2023/10/03 13:54:05;;;;;;;13.40;9.33;;;22.40;1.00;;;;;;4992167;28;20541;-87
2023/10/03 13:56:34;;;;;;;11.57;8.50;;;22.40;1.00;;;;;;4989608;28;20461;-87
2023/10/03 13:59:02;;;;;;;13.73;7.03;;;;;;;;;;4990746;28;20450;-88
2023/10/03 14:01:30;;;;;;;12.27;8.10;;;22.40;1.00;;;;;;4989034;28;20525;-86
2023/10/03 14:03:57;;;;;;;11.10;7.67;;;22.40;1.00;;;;;;4994665;28;20439;-87
2023/10/03 14:06:25;;;;;;;12.30;7.10;;;22.40;1.00;;;;;;4988200;28;20438;-89
2023/10/03 14:08:54;;;;;;;15.17;7.80;;;22.30;4.90;;;;;;4984073;28;20525;-86
2023/10/03 14:11:21;;;;;;;9.37;7.43;;;22.30;1.00;;;;;;4982032;28;20449;-87
2023/10/03 14:13:50;;;;;;;10.70;7.20;;;22.30;1.00;;;;;;4983097;28;20450;-87
2023/10/03 14:16:18;;;;;;;12.83;7.10;;;22.20;1.00;;;;;;4981687;28;20514;-87
2023/10/03 14:18:45;;;;;;;10.23;7.60;;;22.10;1.00;;;;;;4981829;28;20516;-87
2023/10/03 14:21:12;;;;;;;7.80;7.07;;;22.10;1.00;;;;;;4981921;28;20478;-87
2023/10/03 14:23:39;;;;;;;9.77;7.63;;;22.00;1.00;;;;;;4987152;28;20450;-87
2023/10/03 14:26:07;;;;;;;11.80;8.43;;;21.80;36.10;;;;;;4983288;28;20543;-87
2023/10/03 14:28:35;;;;;;;10.83;7.40;;;22.00;1.00;;;;;;4992436;28;20449;-85
2023/10/03 14:31:02;;;;;;;10.30;7.80;;;21.80;1.00;;;;;;4999825;28;20471;-86
2023/10/03 14:33:29;;;;;;;16.90;9.93;;;22.10;1.00;;;;;;5000005;28;20462;-85
2023/10/03 14:35:59;;;;;;;14.33;7.30;;;22.30;1.00;;;;;;5000230;28;20497;-85
2023/10/03 14:38:26;;;;;;;8.60;5.80;;;21.90;1.00;;;;;;4999812;28;20501;-86
2023/10/03 14:40:53;;;;;;;7.33;6.10;;;21.90;1.00;;;;;;4996976;28;20517;-86
2023/10/03 14:43:23;;;;;;;8.23;6.00;;;21.70;1.00;;;;;;4986752;28;20474;-87
2023/10/03 14:45:51;;;;;;;11.70;6.73;;;21.30;1.00;;;;;;4983777;28;20460;-87
2023/10/03 14:48:24;;;;;;;6.93;6.10;;;21.10;11.20;;;;;;4981100;28;20481;-86
2023/10/03 14:50:52;;;;;;;9.10;6.47;;;21.00;1.00;;;;;;4981451;28;20477;-86
2023/10/03 14:53:19;;;;;;;9.20;6.53;;;20.90;1.00;;;;;;4980193;28;20457;-85
2023/10/03 14:55:47;;;;;;;13.77;7.70;;;20.90;67.80;;;;;;4981443;28;21085;-87
2023/10/03 14:58:14;;;;;;;9.80;6.57;;;20.90;1.00;;;;;;4982660;28;20453;-86
2023/10/03 15:00:42;;;;;;;8.60;7.00;;;20.90;65.70;;;;;;4982136;28;20473;-86
2023/10/03 15:03:10;;;;;;;8.23;5.97;;;20.90;1.00;;;;;;4983314;28;20890;-87
2023/10/03 15:05:37;;;;;;;9.10;6.70;;;21.20;1.00;;;;;;4988598;28;20441;-87
2023/10/03 15:08:05;;;;;;;7.53;6.77;;;21.20;1.00;;;;;;4991465;28;20448;-86
2023/10/03 15:10:32;;;;;;;9.30;7.33;;;21.20;1.00;;;;;;4982188;28;20523;-87
2023/10/03 15:13:00;;;;;;;9.83;5.53;;;21.30;1.00;;;;;;4982326;28;20438;-86
2023/10/03 15:15:27;;;;;;;9.70;5.67;;;21.40;1.00;;;;;;4981548;28;20481;-86
2023/10/03 15:17:55;;;;;;;8.60;6.10;;;21.30;1.00;;;;;;4979762;28;20504;-87
2023/10/03 15:20:23;;;;;;;10.30;8.90;;;21.40;1.00;;;;;;4979789;28;20458;-86
2023/10/03 15:22:51;;;;;;;10.30;7.50;;;21.40;1.00;;;;;;4980265;28;20477;-86
2023/10/03 15:25:18;;;;;;;8.83;6.50;;;21.40;1.00;;;;;;4981364;28;20458;-87
2023/10/03 15:27:46;;;;;;;8.20;6.20;;;21.60;1.00;;;;;;4981371;28;20438;-87
2023/10/03 15:30:16;;;;;;;10.67;5.93;;;21.50;1.00;;;;;;4982728;28;20532;-86
2023/10/03 15:32:43;;;;;;;9.97;5.40;;;21.50;1.00;;;;;;4980914;28;20437;-86
2023/10/03 15:35:12;;;;;;;16.83;10.23;;;21.50;1.00;;;;;;4980866;28;20578;-87
2023/10/03 15:37:39;;;;;;;10.67;8.40;;;21.50;1.00;;;;;;4979841;28;20445;-87
2023/10/03 15:40:08;;;;;;;13.03;8.50;;;21.50;1.00;;;;;;4982824;28;20472;-88
2023/10/03 15:42:35;;;;;;;6.43;5.27;;;21.50;1.00;;;;;;4988565;28;20495;-87
2023/10/03 15:45:05;;;;;;;8.53;5.50;;;21.50;1.00;;;;;;4992032;28;20532;-86
2023/10/03 15:47:33;;;;;;;11.20;6.30;;;21.60;1.00;;;;;;4992886;28;20451;-86
2023/10/03 15:50:00;;;;;;;7.17;6.00;;;21.60;1.00;;;;;;4986947;28;20552;-87
2023/10/03 15:52:28;;;;;;;10.80;6.07;;;21.50;1.00;;;;;;4982803;28;20466;-87
2023/10/03 15:54:58;;;;;;;7.37;6.03;;;;;;;;;;4982010;28;20484;-87
2023/10/03 15:57:24;;;;;;;8.60;6.83;;;21.80;17.50;;;;;;4982538;28;20859;-86
2023/10/03 15:59:51;;;;;;;13.17;7.93;;;21.40;1.00;;;;;;4978888;28;20462;-86
2023/10/03 16:02:19;;;;;;;7.77;6.27;;;21.40;1.00;;;;;;4979450;28;20839;-86
2023/10/03 16:04:46;;;;;;;16.30;7.77;;;21.40;1.00;;;;;;4982945;28;20440;-87
2023/10/03 16:07:13;;;;;;;13.27;6.20;;;21.30;37.20;;;;;;4979341;28;20452;-86
2023/10/03 16:09:43;;;;;;;12.57;5.67;;;19.90;1.00;;;;;;4978880;28;20527;-86
2023/10/03 16:12:11;;;;;;;7.37;4.23;;;18.80;99.90;;;;;;4979623;28;20445;-86
2023/10/03 16:14:38;;;;;;;6.07;4.20;;;17.90;99.90;;;;;;4990993;28;20457;-86
2023/10/03 16:17:06;;;;;;;5.97;3.90;;;17.30;99.90;;;;;;4984833;28;20452;-86
2023/10/03 16:19:33;;;;;;;9.40;5.07;;;16.90;99.90;;;;;;4980871;28;20533;-87
2023/10/03 16:22:02;;;;;;;6.90;4.30;;;16.80;99.90;;;;;;4980052;28;21018;-86
2023/10/03 16:24:29;;;;;;;7.10;5.30;;;16.70;99.90;;;;;;4979822;28;20985;-86
2023/10/03 16:26:57;;;;;;;12.60;5.60;;;16.60;99.90;;;;;;4979842;28;20472;-86
2023/10/03 16:29:27;;;;;;;8.07;6.10;;;16.70;99.90;;;;;;4989379;28;20993;-86
2023/10/03 16:31:54;;;;;;;11.03;6.47;;;16.70;99.90;;;;;;4980430;28;20450;-86
2023/10/03 16:34:21;;;;;;;8.47;7.10;;;16.70;99.90;;;;;;4980380;28;20537;-86
2023/10/03 16:36:49;;;;;;;21.60;9.67;;;16.80;99.90;;;;;;4978715;28;21056;-86
2023/10/03 16:39:16;;;;;;;9.13;8.07;;;16.90;99.90;;;;;;4983184;28;20468;-86
2023/10/03 16:41:43;;;;;;;15.57;10.13;;;16.90;99.90;;;;;;4978851;28;20537;-85
2023/10/03 16:44:11;;;;;;;11.27;8.77;;;17.00;99.90;;;;;;4985619;28;20488;-85
2023/10/03 16:46:38;;;;;;;11.57;8.60;;;17.10;99.90;;;;;;4995792;28;20472;-85
2023/10/03 16:49:06;;;;;;;9.77;7.13;;;17.10;99.90;;;;;;4995938;28;20447;-86
2023/10/03 17:07:59;;;;;;;;;;;;;;;;;;;;;
2023/10/03 18:11:15;;;;;;;4.23;3.47;;;15.40;99.90;;;;;;5004132;28;20470;-87
2023/10/03 20:15:53;;;;;;;;;;;;;;;;;;;;;
2023/10/03 22:15:35;;;;;;;6.07;4.20;;;14.10;99.90;;;;;;4959486;29;20436;-87
2023/10/03 22:31:51;;;;;;;3.80;2.40;;;14.10;99.90;;;;;;5063605;23;20491;-88
2023/10/03 22:34:19;;;;;;;5.03;2.40;;;14.10;99.90;;;;;;4979738;28;20568;-88
2023/10/03 22:36:47;;;;;;;7.00;2.43;;;14.10;99.90;;;;;;4983003;28;20477;-89
2023/10/03 22:39:16;;;;;;;8.10;2.40;;;14.20;99.90;;;;;;4998630;28;20450;-86
